Attalla, AL

2:29 PM CST on December 06, 2016 (GMT -0600)
Gadsden Municipal

Weather History for KGAD - March, 2011

Change the Weather History Date:

Friday, March 4, 2011

  Actual Average Record
Temperature  
Mean Temperature 58 °F -  
Max Temperature 64 °F 58 °F 80 °F (1951)
Min Temperature 51 °F 36 °F 13 °F (1943)
Degree Days  
Heating Degree Days 8    
Growing Degree Days 8 (Base 50)    
Moisture  
Dew Point 42 °F    
Average Humidity 58    
Maximum Humidity 67    
Minimum Humidity 48    
Precipitation  
Precipitation 0.00 in - - ()
Sea Level Pressure  
Sea Level Pressure 30.27 in    
Wind  
Wind Speed 11 mph (ESE)    
Max Wind Speed 20 mph    
Max Gust Speed 28 mph    
Visibility 10 miles    
Events      
Averages and records for this station are not official NWS values.
T = Trace of Precipitation, MM = Missing Value Source: NWS Daily Summary

Daily Weather History Graph

Daily Weather History Graph

Search for Another Location

Airport or City:

Trip Planner

Search our weather history database for the weather conditions in past years. The results will help you decide how hot, cold, wet, or windy it might be!

Date:

Astronomy

Mar. 04, 2011 Rise Set
Actual Time 6:09 AM CST 5:43 PM CST
Civil Twilight 5:44 AM CST 6:08 PM CST
Nautical Twilight 5:15 AM CST 6:37 PM CST
Astronomical Twilight 4:46 AM CST 7:06 PM CST
Moon 5:43 AM CST (3/4) 5:49 PM CST (3/4)
Length of Visible Light 12h 23m
Length of Day
11h 33m
Waning Crescent, 0% of the Moon is Illuminated
Mar 4
Waning Crescent
Mar 4
New
Mar 12
First Quarter
Mar 19
Full
Mar 26
Last Quarter

Hourly Weather History & Observations

Time (CST) Temp. Dew Point Humidity Pressure Visibility Wind Dir Wind Speed Gust Speed Precip Events Conditions
12:15 AM 57.2 °F 37.4 °F 48% 30.25 in 10.0 mi SE 10.4 mph 18.4 mph N/A   Mostly Cloudy
12:35 AM 57.2 °F 39.2 °F 51% 30.25 in 10.0 mi SE 11.5 mph 23.0 mph N/A   Scattered Clouds
12:55 AM 57.2 °F 39.2 °F 51% 30.26 in 10.0 mi SE 11.5 mph 18.4 mph N/A   Partly Cloudy
1:15 AM 57.2 °F 41.0 °F 55% 30.26 in 10.0 mi SSE 11.5 mph - N/A   Partly Cloudy
1:35 AM 55.4 °F 41.0 °F 58% 30.26 in 10.0 mi SE 9.2 mph - N/A   Clear
1:55 AM 55.4 °F 42.8 °F 63% 30.26 in 10.0 mi SE 11.5 mph - N/A   Partly Cloudy
2:15 AM 55.4 °F 42.8 °F 63% 30.26 in 10.0 mi SE 10.4 mph - N/A   Mostly Cloudy
2:35 AM 55.4 °F 42.8 °F 63% 30.25 in 10.0 mi SE 10.4 mph - N/A   Mostly Cloudy
2:55 AM 55.4 °F 42.8 °F 63% 30.26 in 10.0 mi SE 6.9 mph - N/A   Overcast
3:15 AM 55.4 °F 42.8 °F 63% 30.26 in 10.0 mi East 6.9 mph - N/A   Overcast
3:35 AM 55.4 °F 42.8 °F 63% 30.26 in 10.0 mi ESE 6.9 mph - N/A   Overcast
3:55 AM 53.6 °F 42.8 °F 67% 30.26 in 10.0 mi ESE 11.5 mph - N/A   Overcast
4:15 AM 53.6 °F 42.8 °F 67% 30.27 in 10.0 mi East 9.2 mph 16.1 mph N/A   Overcast
4:35 AM 53.6 °F 42.8 °F 67% 30.27 in 10.0 mi ESE 9.2 mph - N/A   Overcast
4:55 AM 53.6 °F 42.8 °F 67% 30.28 in 10.0 mi ESE 11.5 mph 17.3 mph N/A   Overcast
5:15 AM 53.6 °F 42.8 °F 67% 30.28 in 10.0 mi East 10.4 mph - N/A   Overcast
5:35 AM 53.6 °F 41.0 °F 62% 30.29 in 10.0 mi ESE 11.5 mph - N/A   Overcast
5:55 AM 53.6 °F 39.2 °F 58% 30.29 in 10.0 mi East 12.7 mph - N/A   Overcast
6:15 AM 53.6 °F 39.2 °F 58% 30.31 in 10.0 mi ESE 12.7 mph - N/A   Overcast
6:35 AM 53.6 °F 39.2 °F 58% 30.31 in 10.0 mi ESE 9.2 mph - N/A   Overcast
6:55 AM 51.8 °F 39.2 °F 62% 30.32 in 10.0 mi East 9.2 mph - N/A   Mostly Cloudy
7:15 AM 53.6 °F 39.2 °F 58% 30.33 in 10.0 mi ESE 11.5 mph - N/A   Overcast
7:35 AM 53.6 °F 37.4 °F 54% 30.33 in 10.0 mi ESE 11.5 mph 21.9 mph N/A   Overcast
7:55 AM 53.6 °F 37.4 °F 54% 30.34 in 10.0 mi ESE 15.0 mph 19.6 mph N/A   Overcast
8:15 AM 53.6 °F 37.4 °F 54% 30.35 in 10.0 mi SE 12.7 mph 16.1 mph N/A   Overcast
8:35 AM 53.6 °F 37.4 °F 54% 30.35 in 10.0 mi ESE 10.4 mph 19.6 mph N/A   Overcast
8:55 AM 53.6 °F 39.2 °F 58% 30.34 in 10.0 mi ESE 12.7 mph 19.6 mph N/A   Overcast
9:15 AM 55.4 °F 39.2 °F 54% 30.34 in 10.0 mi East 15.0 mph 18.4 mph N/A   Overcast
9:35 AM 57.2 °F 39.2 °F 51% 30.34 in 10.0 mi ESE 11.5 mph - N/A   Overcast
9:55 AM 57.2 °F 39.2 °F 51% 30.33 in 10.0 mi ESE 9.2 mph - N/A   Overcast
10:15 AM 57.2 °F 41.0 °F 55% 30.34 in 10.0 mi ESE 9.2 mph - N/A   Overcast
10:35 AM 60.8 °F 42.8 °F 52% 30.33 in 10.0 mi ESE 13.8 mph 19.6 mph N/A   Overcast
10:55 AM 60.8 °F 42.8 °F 52% 30.32 in 10.0 mi ESE 18.4 mph - N/A   Overcast
11:15 AM 60.8 °F 42.8 °F 52% 30.32 in 10.0 mi ESE 8.1 mph - N/A   Overcast
11:35 AM 60.8 °F 42.8 °F 52% 30.31 in 10.0 mi SE 11.5 mph 18.4 mph N/A   Overcast
11:55 AM 62.6 °F 44.6 °F 52% 30.30 in 10.0 mi East 15.0 mph - N/A   Mostly Cloudy
12:15 PM 62.6 °F 44.6 °F 52% 30.29 in 10.0 mi ESE 13.8 mph 18.4 mph N/A   Mostly Cloudy
12:35 PM 64.4 °F 44.6 °F 49% 30.28 in 10.0 mi SE 15.0 mph - N/A   Overcast
12:55 PM 62.6 °F 44.6 °F 52% 30.27 in 10.0 mi SE 12.7 mph 19.6 mph N/A   Overcast
1:15 PM 64.4 °F 44.6 °F 49% 30.25 in 10.0 mi SE 17.3 mph 21.9 mph N/A   Mostly Cloudy
1:35 PM 64.4 °F 44.6 °F 49% 30.24 in 10.0 mi ESE 16.1 mph 23.0 mph N/A   Mostly Cloudy
2:15 PM 64.4 °F 46.4 °F 52% 30.23 in 10.0 mi SE 12.7 mph 24.2 mph N/A   Scattered Clouds
2:35 PM 64.4 °F 46.4 °F 52% 30.22 in 10.0 mi ESE 12.7 mph 24.2 mph N/A   Clear
2:55 PM 62.6 °F 46.4 °F 55% 30.22 in 10.0 mi SE 11.5 mph 23.0 mph N/A   Scattered Clouds
3:15 PM 62.6 °F 46.4 °F 55% 30.22 in 10.0 mi SE 19.6 mph 27.6 mph N/A   Partly Cloudy
3:35 PM 60.8 °F 46.4 °F 59% 30.21 in 10.0 mi ESE 13.8 mph 21.9 mph N/A   Clear
3:55 PM 59.0 °F 46.4 °F 63% 30.20 in 10.0 mi ESE 16.1 mph 26.5 mph N/A   Clear
4:15 PM 57.2 °F 46.4 °F 67% 30.22 in 10.0 mi SE 11.5 mph 19.6 mph N/A   Scattered Clouds
4:35 PM 57.2 °F 46.4 °F 67% 30.21 in 10.0 mi SE 11.5 mph 21.9 mph N/A   Mostly Cloudy
4:55 PM 57.2 °F 44.6 °F 63% 30.22 in 10.0 mi ESE 11.5 mph - N/A   Overcast
5:15 PM 57.2 °F 44.6 °F 63% 30.22 in 10.0 mi SE 10.4 mph 17.3 mph N/A   Overcast
5:35 PM 55.4 °F 44.6 °F 67% 30.22 in 10.0 mi SE 6.9 mph - N/A   Overcast
5:55 PM 55.4 °F 44.6 °F 67% 30.22 in 10.0 mi SE 15.0 mph - N/A   Overcast
6:15 PM 55.4 °F 44.6 °F 67% 30.23 in 10.0 mi ESE 9.2 mph 16.1 mph N/A   Overcast
6:35 PM 55.4 °F 44.6 °F 67% 30.23 in 10.0 mi East 8.1 mph - N/A   Overcast
6:55 PM 55.4 °F 46.4 °F 72% 30.23 in 10.0 mi SE 8.1 mph 17.3 mph N/A   Overcast
7:15 PM 55.4 °F 46.4 °F 72% 30.25 in 10.0 mi ESE 9.2 mph - N/A   Overcast
7:35 PM 55.4 °F 46.4 °F 72% 30.25 in 10.0 mi SE 11.5 mph 19.6 mph N/A   Overcast
7:55 PM 55.4 °F 46.4 °F 72% 30.26 in 10.0 mi ESE 9.2 mph - N/A   Overcast
8:15 PM 55.4 °F 46.4 °F 72% 30.26 in 10.0 mi SE 9.2 mph - N/A   Overcast
8:35 PM 55.4 °F 46.4 °F 72% 30.26 in 10.0 mi ESE 9.2 mph - N/A   Overcast
9:15 PM 53.6 °F 44.6 °F 72% 30.26 in 10.0 mi ESE 8.1 mph - N/A   Overcast
9:35 PM 53.6 °F 44.6 °F 72% 30.26 in 10.0 mi East 8.1 mph - N/A   Overcast
9:55 PM 51.8 °F 46.4 °F 82% 30.26 in 10.0 mi East 5.8 mph - N/A   Overcast
10:15 PM 51.8 °F 46.4 °F 82% 30.26 in 9.0 mi ESE 5.8 mph - N/A   Overcast
10:35 PM 51.8 °F 46.4 °F 82% 30.26 in 10.0 mi SE 6.9 mph 16.1 mph N/A   Overcast
10:55 PM 51.8 °F 46.4 °F 82% 30.26 in 9.0 mi Calm Calm - 0.01 in   Mostly Cloudy
11:15 PM 51.8 °F 46.4 °F 82% 30.26 in 8.0 mi SE 9.2 mph - 0.01 in   Overcast
11:35 PM 51.8 °F 46.4 °F 82% 30.25 in 10.0 mi ESE 5.8 mph - 0.02 in   Overcast
11:55 PM 50.0 °F 46.4 °F 87% 30.24 in 9.0 mi East 4.6 mph - 0.03 in   Overcast